DCT weather

Duncan Town Airport
Ragged Island, Bahamas

Public forecast

Using degrees Celsius for public forecast. Weather courtesy of forecast.io.

METAR (pilot weather report)

Report is more than 6 hours old.

Closest report is George Town Airport, 77.2 nm (143.0 km) N. Retrieved 2012/06/14 14:59 UTC (7 years ago):

MYEG 141459Z AUTO 29009KT 7SM 26/24 A2999 RMK AO2 PWINO TSNO

TAF (pilot weather forecast)

Forecast is more than 12 hours old.

Closest forecast is Frank Pais International Airport, 90.0 nm (166.7 km) SSW. Retrieved 2019/09/18 00:03 UTC (1 day ago):

TAF MUHG 182300Z 1900/1924 03007KT 9000 SCT020 BKN080 BECMG 1901/1903 VRB03KT SCT020 TEMPO 1905/1912 5000 SHRA BR SCT020CB BECMG 1914/1916 05008KT BKN020 TEMPO 1917/1923 VRB10KT 4000 TSRA SCT018CB BKN020